sensor_id;sensor_type;location;lat;lon;timestamp;P1;durP1;ratioP1;P2;durP2;ratioP2
79074;SDS011;68476;42.710;23.388;2023-06-10T00:00:12;11.23;;;7.50;;
79074;SDS011;68476;42.710;23.388;2023-06-10T00:07:02;10.80;;;8.18;;
79074;SDS011;68476;42.710;23.388;2023-06-10T00:10:32;11.18;;;8.52;;
79074;SDS011;68476;42.710;23.388;2023-06-10T00:13:57;9.95;;;8.30;;
79074;SDS011;68476;42.710;23.388;2023-06-10T00:20:47;9.63;;;7.85;;
79074;SDS011;68476;42.710;23.388;2023-06-10T00:24:11;10.13;;;7.70;;
79074;SDS011;68476;42.710;23.388;2023-06-10T00:27:35;12.52;;;8.57;;
79074;SDS011;68476;42.710;23.388;2023-06-10T00:30:59;11.60;;;8.18;;
79074;SDS011;68476;42.710;23.388;2023-06-10T00:34:23;11.10;;;8.40;;
79074;SDS011;68476;42.710;23.388;2023-06-10T00:37:47;11.02;;;8.07;;
79074;SDS011;68476;42.710;23.388;2023-06-10T00:41:11;10.57;;;7.68;;
79074;SDS011;68476;42.710;23.388;2023-06-10T00:44:35;9.18;;;7.40;;
79074;SDS011;68476;42.710;23.388;2023-06-10T00:51:25;10.05;;;7.40;;
79074;SDS011;68476;42.710;23.388;2023-06-10T00:54:51;9.13;;;8.13;;
79074;SDS011;68476;42.710;23.388;2023-06-10T00:58:15;9.90;;;7.93;;
79074;SDS011;68476;42.710;23.388;2023-06-10T01:01:40;9.35;;;7.82;;
79074;SDS011;68476;42.710;23.388;2023-06-10T01:05:04;10.32;;;8.15;;
79074;SDS011;68476;42.710;23.388;2023-06-10T01:08:40;9.70;;;8.73;;
79074;SDS011;68476;42.710;23.388;2023-06-10T01:12:33;10.35;;;7.35;;
79074;SDS011;68476;42.710;23.388;2023-06-10T01:16:00;8.93;;;7.32;;
79074;SDS011;68476;42.710;23.388;2023-06-10T01:19:26;10.23;;;8.63;;
79074;SDS011;68476;42.710;23.388;2023-06-10T01:22:52;9.85;;;8.45;;
79074;SDS011;68476;42.710;23.388;2023-06-10T01:26:17;9.38;;;6.80;;
79074;SDS011;68476;42.710;23.388;2023-06-10T01:29:50;8.43;;;6.68;;
79074;SDS011;68476;42.710;23.388;2023-06-10T01:33:26;8.18;;;6.40;;
79074;SDS011;68476;42.710;23.388;2023-06-10T01:36:51;8.98;;;6.55;;
79074;SDS011;68476;42.710;23.388;2023-06-10T01:40:18;9.23;;;6.43;;
79074;SDS011;68476;42.710;23.388;2023-06-10T01:43:43;7.35;;;6.32;;
79074;SDS011;68476;42.710;23.388;2023-06-10T01:47:08;8.13;;;6.43;;
79074;SDS011;68476;42.710;23.388;2023-06-10T01:50:32;9.70;;;6.60;;
79074;SDS011;68476;42.710;23.388;2023-06-10T01:53:56;7.63;;;6.93;;
79074;SDS011;68476;42.710;23.388;2023-06-10T01:57:20;7.35;;;6.65;;
79074;SDS011;68476;42.710;23.388;2023-06-10T02:00:44;8.18;;;6.93;;
79074;SDS011;68476;42.710;23.388;2023-06-10T02:04:08;7.30;;;6.57;;
79074;SDS011;68476;42.710;23.388;2023-06-10T02:07:32;7.72;;;6.47;;
79074;SDS011;68476;42.710;23.388;2023-06-10T02:10:56;7.90;;;6.95;;
79074;SDS011;68476;42.710;23.388;2023-06-10T02:14:20;8.60;;;6.82;;
79074;SDS011;68476;42.710;23.388;2023-06-10T02:17:44;8.70;;;6.95;;
79074;SDS011;68476;42.710;23.388;2023-06-10T02:21:08;8.85;;;6.82;;
79074;SDS011;68476;42.710;23.388;2023-06-10T02:27:56;9.55;;;7.40;;
79074;SDS011;68476;42.710;23.388;2023-06-10T02:31:20;9.63;;;7.60;;
79074;SDS011;68476;42.710;23.388;2023-06-10T02:34:44;9.77;;;7.63;;
79074;SDS011;68476;42.710;23.388;2023-06-10T02:38:08;16.40;;;8.23;;
79074;SDS011;68476;42.710;23.388;2023-06-10T02:41:32;10.43;;;8.10;;
79074;SDS011;68476;42.710;23.388;2023-06-10T02:44:56;10.18;;;7.90;;
79074;SDS011;68476;42.710;23.388;2023-06-10T02:48:20;8.95;;;7.78;;
79074;SDS011;68476;42.710;23.388;2023-06-10T02:51:44;9.43;;;7.78;;
79074;SDS011;68476;42.710;23.388;2023-06-10T02:55:08;10.77;;;8.40;;
79074;SDS011;68476;42.710;23.388;2023-06-10T02:58:33;9.90;;;8.50;;
79074;SDS011;68476;42.710;23.388;2023-06-10T03:01:57;11.63;;;9.10;;
79074;SDS011;68476;42.710;23.388;2023-06-10T03:05:22;11.05;;;8.57;;
79074;SDS011;68476;42.710;23.388;2023-06-10T03:08:49;12.38;;;10.55;;
79074;SDS011;68476;42.710;23.388;2023-06-10T03:12:13;24.27;;;18.38;;
79074;SDS011;68476;42.710;23.388;2023-06-10T03:15:37;15.35;;;11.30;;
79074;SDS011;68476;42.710;23.388;2023-06-10T03:19:05;12.90;;;10.80;;
79074;SDS011;68476;42.710;23.388;2023-06-10T03:22:30;14.43;;;10.75;;
79074;SDS011;68476;42.710;23.388;2023-06-10T03:25:54;12.55;;;9.73;;
79074;SDS011;68476;42.710;23.388;2023-06-10T03:29:18;12.10;;;8.93;;
79074;SDS011;68476;42.710;23.388;2023-06-10T03:32:42;11.30;;;8.30;;
79074;SDS011;68476;42.710;23.388;2023-06-10T03:36:06;9.43;;;8.40;;
79074;SDS011;68476;42.710;23.388;2023-06-10T03:39:30;9.45;;;7.95;;
79074;SDS011;68476;42.710;23.388;2023-06-10T03:42:56;10.73;;;8.20;;
79074;SDS011;68476;42.710;23.388;2023-06-10T03:46:21;15.27;;;8.70;;
79074;SDS011;68476;42.710;23.388;2023-06-10T03:49:44;11.65;;;8.70;;
79074;SDS011;68476;42.710;23.388;2023-06-10T03:53:08;10.13;;;8.50;;
79074;SDS011;68476;42.710;23.388;2023-06-10T03:56:32;11.40;;;8.98;;
79074;SDS011;68476;42.710;23.388;2023-06-10T03:59:56;10.60;;;8.95;;
79074;SDS011;68476;42.710;23.388;2023-06-10T04:03:20;10.80;;;9.18;;
79074;SDS011;68476;42.710;23.388;2023-06-10T04:06:44;11.75;;;8.45;;
79074;SDS011;68476;42.710;23.388;2023-06-10T04:10:09;11.90;;;9.15;;
79074;SDS011;68476;42.710;23.388;2023-06-10T04:13:33;14.68;;;9.27;;
79074;SDS011;68476;42.710;23.388;2023-06-10T04:16:57;13.52;;;9.68;;
79074;SDS011;68476;42.710;23.388;2023-06-10T04:20:21;12.93;;;10.55;;
79074;SDS011;68476;42.710;23.388;2023-06-10T04:23:45;11.88;;;9.63;;
79074;SDS011;68476;42.710;23.388;2023-06-10T04:27:09;12.15;;;9.30;;
79074;SDS011;68476;42.710;23.388;2023-06-10T04:30:33;12.75;;;9.57;;
79074;SDS011;68476;42.710;23.388;2023-06-10T04:33:57;13.25;;;9.10;;
79074;SDS011;68476;42.710;23.388;2023-06-10T04:40:46;13.43;;;10.00;;
79074;SDS011;68476;42.710;23.388;2023-06-10T04:44:10;15.02;;;10.38;;
79074;SDS011;68476;42.710;23.388;2023-06-10T04:47:34;11.40;;;9.00;;
79074;SDS011;68476;42.710;23.388;2023-06-10T04:51:00;11.02;;;9.00;;
79074;SDS011;68476;42.710;23.388;2023-06-10T04:54:25;12.55;;;9.52;;
79074;SDS011;68476;42.710;23.388;2023-06-10T04:57:49;11.40;;;8.70;;
79074;SDS011;68476;42.710;23.388;2023-06-10T05:01:12;14.90;;;9.30;;
79074;SDS011;68476;42.710;23.388;2023-06-10T05:04:36;15.90;;;12.20;;
79074;SDS011;68476;42.710;23.388;2023-06-10T05:08:00;23.08;;;17.95;;
79074;SDS011;68476;42.710;23.388;2023-06-10T05:11:24;25.90;;;21.95;;
79074;SDS011;68476;42.710;23.388;2023-06-10T05:14:48;22.00;;;17.85;;
79074;SDS011;68476;42.710;23.388;2023-06-10T05:18:13;17.77;;;11.85;;
79074;SDS011;68476;42.710;23.388;2023-06-10T05:21:37;13.48;;;9.95;;
79074;SDS011;68476;42.710;23.388;2023-06-10T05:25:01;11.38;;;8.93;;
79074;SDS011;68476;42.710;23.388;2023-06-10T05:28:25;14.38;;;10.50;;
79074;SDS011;68476;42.710;23.388;2023-06-10T05:35:13;13.18;;;10.35;;
79074;SDS011;68476;42.710;23.388;2023-06-10T05:38:37;13.73;;;10.15;;
79074;SDS011;68476;42.710;23.388;2023-06-10T05:42:03;13.45;;;10.05;;
79074;SDS011;68476;42.710;23.388;2023-06-10T05:45:27;12.80;;;10.68;;
79074;SDS011;68476;42.710;23.388;2023-06-10T05:48:51;13.13;;;10.80;;
79074;SDS011;68476;42.710;23.388;2023-06-10T05:52:16;12.82;;;10.82;;
79074;SDS011;68476;42.710;23.388;2023-06-10T05:59:04;12.90;;;10.32;;
79074;SDS011;68476;42.710;23.388;2023-06-10T06:02:29;15.38;;;10.55;;
79074;SDS011;68476;42.710;23.388;2023-06-10T06:05:53;14.57;;;10.50;;
79074;SDS011;68476;42.710;23.388;2023-06-10T06:12:42;10.98;;;8.55;;
79074;SDS011;68476;42.710;23.388;2023-06-10T06:16:07;11.82;;;9.35;;
79074;SDS011;68476;42.710;23.388;2023-06-10T06:19:31;11.05;;;8.98;;
79074;SDS011;68476;42.710;23.388;2023-06-10T06:26:19;11.80;;;8.80;;
79074;SDS011;68476;42.710;23.388;2023-06-10T06:33:06;11.35;;;8.40;;
79074;SDS011;68476;42.710;23.388;2023-06-10T06:36:30;10.77;;;8.48;;
79074;SDS011;68476;42.710;23.388;2023-06-10T06:39:54;11.25;;;9.23;;
79074;SDS011;68476;42.710;23.388;2023-06-10T06:43:19;14.75;;;9.60;;
79074;SDS011;68476;42.710;23.388;2023-06-10T06:46:43;11.50;;;10.07;;
79074;SDS011;68476;42.710;23.388;2023-06-10T06:50:08;13.40;;;9.75;;
79074;SDS011;68476;42.710;23.388;2023-06-10T06:53:32;24.02;;;13.05;;
79074;SDS011;68476;42.710;23.388;2023-06-10T06:56:56;15.98;;;13.18;;
79074;SDS011;68476;42.710;23.388;2023-06-10T07:00:20;13.50;;;11.02;;
79074;SDS011;68476;42.710;23.388;2023-06-10T07:07:09;12.10;;;7.97;;
79074;SDS011;68476;42.710;23.388;2023-06-10T07:13:56;10.70;;;8.32;;
79074;SDS011;68476;42.710;23.388;2023-06-10T07:17:20;14.52;;;10.30;;
79074;SDS011;68476;42.710;23.388;2023-06-10T07:20:44;12.35;;;9.70;;
79074;SDS011;68476;42.710;23.388;2023-06-10T07:24:08;10.98;;;7.32;;
79074;SDS011;68476;42.710;23.388;2023-06-10T07:27:32;7.72;;;6.50;;
79074;SDS011;68476;42.710;23.388;2023-06-10T07:30:56;10.00;;;7.05;;
79074;SDS011;68476;42.710;23.388;2023-06-10T07:34:20;10.15;;;5.78;;
79074;SDS011;68476;42.710;23.388;2023-06-10T07:37:44;6.90;;;5.13;;
79074;SDS011;68476;42.710;23.388;2023-06-10T07:41:08;10.05;;;5.80;;
79074;SDS011;68476;42.710;23.388;2023-06-10T07:44:32;7.25;;;5.55;;
79074;SDS011;68476;42.710;23.388;2023-06-10T07:51:20;6.57;;;5.20;;
79074;SDS011;68476;42.710;23.388;2023-06-10T07:54:44;6.35;;;5.28;;
79074;SDS011;68476;42.710;23.388;2023-06-10T08:01:32;7.32;;;5.53;;
79074;SDS011;68476;42.710;23.388;2023-06-10T08:04:56;7.53;;;4.82;;
79074;SDS011;68476;42.710;23.388;2023-06-10T08:08:20;6.20;;;5.57;;
79074;SDS011;68476;42.710;23.388;2023-06-10T08:11:46;5.93;;;5.30;;
79074;SDS011;68476;42.710;23.388;2023-06-10T08:15:10;6.30;;;5.10;;
79074;SDS011;68476;42.710;23.388;2023-06-10T08:18:35;6.45;;;4.65;;
79074;SDS011;68476;42.710;23.388;2023-06-10T08:25:23;5.30;;;3.80;;
79074;SDS011;68476;42.710;23.388;2023-06-10T08:28:46;4.80;;;4.18;;
79074;SDS011;68476;42.710;23.388;2023-06-10T08:35:34;7.07;;;4.30;;
79074;SDS011;68476;42.710;23.388;2023-06-10T08:38:58;5.38;;;4.20;;
79074;SDS011;68476;42.710;23.388;2023-06-10T08:49:18;5.15;;;3.65;;
79074;SDS011;68476;42.710;23.388;2023-06-10T08:52:43;4.15;;;3.53;;
79074;SDS011;68476;42.710;23.388;2023-06-10T08:56:13;4.65;;;3.60;;
79074;SDS011;68476;42.710;23.388;2023-06-10T08:59:37;4.30;;;3.55;;
79074;SDS011;68476;42.710;23.388;2023-06-10T09:03:03;4.22;;;3.75;;
79074;SDS011;68476;42.710;23.388;2023-06-10T09:06:28;4.55;;;3.75;;
79074;SDS011;68476;42.710;23.388;2023-06-10T09:09:53;5.03;;;4.00;;
79074;SDS011;68476;42.710;23.388;2023-06-10T09:13:17;4.43;;;3.90;;
79074;SDS011;68476;42.710;23.388;2023-06-10T09:16:41;4.72;;;3.58;;
79074;SDS011;68476;42.710;23.388;2023-06-10T09:20:06;6.18;;;3.60;;
79074;SDS011;68476;42.710;23.388;2023-06-10T09:23:31;4.55;;;3.40;;
79074;SDS011;68476;42.710;23.388;2023-06-10T09:27:05;6.38;;;4.15;;
79074;SDS011;68476;42.710;23.388;2023-06-10T09:30:30;6.40;;;4.20;;
79074;SDS011;68476;42.710;23.388;2023-06-10T09:33:55;6.28;;;3.65;;
79074;SDS011;68476;42.710;23.388;2023-06-10T09:37:34;4.30;;;3.80;;
79074;SDS011;68476;42.710;23.388;2023-06-10T09:41:03;5.57;;;3.95;;
79074;SDS011;68476;42.710;23.388;2023-06-10T09:44:27;5.05;;;4.45;;
79074;SDS011;68476;42.710;23.388;2023-06-10T09:47:57;5.47;;;4.25;;
79074;SDS011;68476;42.710;23.388;2023-06-10T09:51:22;4.63;;;3.80;;
79074;SDS011;68476;42.710;23.388;2023-06-10T09:54:50;14.52;;;5.03;;
79074;SDS011;68476;42.710;23.388;2023-06-10T09:58:14;4.78;;;3.72;;
79074;SDS011;68476;42.710;23.388;2023-06-10T10:01:38;5.78;;;4.18;;
79074;SDS011;68476;42.710;23.388;2023-06-10T10:05:10;4.65;;;3.80;;
79074;SDS011;68476;42.710;23.388;2023-06-10T10:08:36;5.60;;;3.60;;
79074;SDS011;68476;42.710;23.388;2023-06-10T10:12:08;4.20;;;3.13;;
79074;SDS011;68476;42.710;23.388;2023-06-10T10:15:33;4.68;;;3.80;;
79074;SDS011;68476;42.710;23.388;2023-06-10T10:19:40;4.63;;;3.70;;
79074;SDS011;68476;42.710;23.388;2023-06-10T10:22:58;5.63;;;4.30;;
79074;SDS011;68476;42.710;23.388;2023-06-10T10:26:40;4.55;;;3.88;;
79074;SDS011;68476;42.710;23.388;2023-06-10T10:30:21;4.47;;;4.00;;
79074;SDS011;68476;42.710;23.388;2023-06-10T10:33:57;5.35;;;4.13;;
79074;SDS011;68476;42.710;23.388;2023-06-10T10:37:30;5.72;;;3.83;;
79074;SDS011;68476;42.710;23.388;2023-06-10T10:40:55;4.32;;;3.92;;
79074;SDS011;68476;42.710;23.388;2023-06-10T10:44:21;4.38;;;3.50;;
79074;SDS011;68476;42.710;23.388;2023-06-10T10:47:46;5.85;;;3.70;;
79074;SDS011;68476;42.710;23.388;2023-06-10T10:51:22;4.40;;;4.00;;
79074;SDS011;68476;42.710;23.388;2023-06-10T10:54:46;4.68;;;3.83;;
79074;SDS011;68476;42.710;23.388;2023-06-10T10:58:24;4.25;;;3.85;;
79074;SDS011;68476;42.710;23.388;2023-06-10T11:01:48;4.00;;;3.60;;
79074;SDS011;68476;42.710;23.388;2023-06-10T11:05:14;4.32;;;3.45;;
79074;SDS011;68476;42.710;23.388;2023-06-10T11:12:22;3.58;;;2.90;;
79074;SDS011;68476;42.710;23.388;2023-06-10T11:15:50;4.75;;;3.20;;
79074;SDS011;68476;42.710;23.388;2023-06-10T11:19:31;3.70;;;2.90;;
79074;SDS011;68476;42.710;23.388;2023-06-10T11:26:53;3.45;;;2.70;;
79074;SDS011;68476;42.710;23.388;2023-06-10T11:30:18;5.78;;;3.30;;
79074;SDS011;68476;42.710;23.388;2023-06-10T11:33:46;3.40;;;3.00;;
79074;SDS011;68476;42.710;23.388;2023-06-10T11:37:16;3.33;;;2.88;;
79074;SDS011;68476;42.710;23.388;2023-06-10T11:40:45;5.57;;;2.78;;
79074;SDS011;68476;42.710;23.388;2023-06-10T11:44:11;3.72;;;2.95;;
79074;SDS011;68476;42.710;23.388;2023-06-10T11:47:40;3.67;;;2.63;;
79074;SDS011;68476;42.710;23.388;2023-06-10T11:51:25;4.15;;;3.03;;
79074;SDS011;68476;42.710;23.388;2023-06-10T11:54:56;4.53;;;2.85;;
79074;SDS011;68476;42.710;23.388;2023-06-10T11:58:21;3.33;;;2.80;;
79074;SDS011;68476;42.710;23.388;2023-06-10T12:01:51;4.00;;;2.85;;
79074;SDS011;68476;42.710;23.388;2023-06-10T12:05:22;4.38;;;2.70;;
79074;SDS011;68476;42.710;23.388;2023-06-10T12:08:46;3.22;;;2.90;;
79074;SDS011;68476;42.710;23.388;2023-06-10T12:12:10;5.28;;;3.00;;
79074;SDS011;68476;42.710;23.388;2023-06-10T12:15:34;3.33;;;2.90;;
79074;SDS011;68476;42.710;23.388;2023-06-10T12:19:02;4.68;;;2.53;;
79074;SDS011;68476;42.710;23.388;2023-06-10T12:22:41;4.32;;;2.97;;
79074;SDS011;68476;42.710;23.388;2023-06-10T12:26:33;3.85;;;3.00;;
79074;SDS011;68476;42.710;23.388;2023-06-10T12:29:58;3.88;;;2.90;;
79074;SDS011;68476;42.710;23.388;2023-06-10T12:33:32;3.83;;;3.03;;
79074;SDS011;68476;42.710;23.388;2023-06-10T12:37:01;3.67;;;2.80;;
79074;SDS011;68476;42.710;23.388;2023-06-10T12:40:28;4.38;;;3.10;;
79074;SDS011;68476;42.710;23.388;2023-06-10T12:43:53;4.45;;;3.03;;
79074;SDS011;68476;42.710;23.388;2023-06-10T12:47:18;3.40;;;2.90;;
79074;SDS011;68476;42.710;23.388;2023-06-10T12:50:43;3.30;;;2.80;;
79074;SDS011;68476;42.710;23.388;2023-06-10T12:54:07;3.88;;;3.00;;
79074;SDS011;68476;42.710;23.388;2023-06-10T12:57:32;3.92;;;3.00;;
79074;SDS011;68476;42.710;23.388;2023-06-10T13:00:55;4.40;;;3.10;;
79074;SDS011;68476;42.710;23.388;2023-06-10T13:04:20;3.60;;;2.95;;
79074;SDS011;68476;42.710;23.388;2023-06-10T13:07:45;3.75;;;2.80;;
79074;SDS011;68476;42.710;23.388;2023-06-10T13:11:09;3.85;;;3.10;;
79074;SDS011;68476;42.710;23.388;2023-06-10T13:14:33;4.88;;;3.08;;
79074;SDS011;68476;42.710;23.388;2023-06-10T13:18:01;3.70;;;2.95;;
79074;SDS011;68476;42.710;23.388;2023-06-10T13:21:27;4.50;;;3.10;;
79074;SDS011;68476;42.710;23.388;2023-06-10T13:24:55;3.85;;;3.33;;
79074;SDS011;68476;42.710;23.388;2023-06-10T13:28:20;10.02;;;3.67;;
79074;SDS011;68476;42.710;23.388;2023-06-10T13:31:44;7.80;;;3.80;;
79074;SDS011;68476;42.710;23.388;2023-06-10T13:38:32;4.70;;;4.20;;
79074;SDS011;68476;42.710;23.388;2023-06-10T13:41:56;7.35;;;3.92;;
79074;SDS011;68476;42.710;23.388;2023-06-10T13:48:46;5.90;;;4.28;;
79074;SDS011;68476;42.710;23.388;2023-06-10T13:52:10;6.07;;;4.57;;
79074;SDS011;68476;42.710;23.388;2023-06-10T13:55:34;5.63;;;4.50;;
79074;SDS011;68476;42.710;23.388;2023-06-10T13:59:02;7.32;;;4.50;;
79074;SDS011;68476;42.710;23.388;2023-06-10T14:02:26;7.22;;;4.47;;
79074;SDS011;68476;42.710;23.388;2023-06-10T14:05:50;5.72;;;4.22;;
79074;SDS011;68476;42.710;23.388;2023-06-10T14:09:14;7.88;;;4.50;;
79074;SDS011;68476;42.710;23.388;2023-06-10T14:12:38;4.57;;;4.05;;
79074;SDS011;68476;42.710;23.388;2023-06-10T14:16:03;5.78;;;3.60;;
79074;SDS011;68476;42.710;23.388;2023-06-10T14:19:29;5.95;;;3.97;;
79074;SDS011;68476;42.710;23.388;2023-06-10T14:22:56;6.53;;;4.20;;
79074;SDS011;68476;42.710;23.388;2023-06-10T14:26:20;6.47;;;4.88;;
79074;SDS011;68476;42.710;23.388;2023-06-10T14:29:45;6.32;;;4.25;;
79074;SDS011;68476;42.710;23.388;2023-06-10T14:36:33;5.03;;;4.10;;
79074;SDS011;68476;42.710;23.388;2023-06-10T14:39:57;5.95;;;4.28;;
79074;SDS011;68476;42.710;23.388;2023-06-10T14:43:21;5.57;;;4.13;;
79074;SDS011;68476;42.710;23.388;2023-06-10T14:46:45;5.70;;;3.83;;
79074;SDS011;68476;42.710;23.388;2023-06-10T14:50:10;6.82;;;4.10;;
79074;SDS011;68476;42.710;23.388;2023-06-10T14:53:34;5.18;;;4.50;;
79074;SDS011;68476;42.710;23.388;2023-06-10T14:56:58;5.30;;;4.10;;
79074;SDS011;68476;42.710;23.388;2023-06-10T15:00:23;5.75;;;4.18;;
79074;SDS011;68476;42.710;23.388;2023-06-10T15:03:47;8.45;;;4.13;;
79074;SDS011;68476;42.710;23.388;2023-06-10T15:10:34;6.95;;;4.25;;
79074;SDS011;68476;42.710;23.388;2023-06-10T15:17:22;6.68;;;4.65;;
79074;SDS011;68476;42.710;23.388;2023-06-10T15:24:10;5.72;;;3.85;;
79074;SDS011;68476;42.710;23.388;2023-06-10T15:27:33;7.20;;;4.22;;
79074;SDS011;68476;42.710;23.388;2023-06-10T15:34:21;4.63;;;4.13;;
79074;SDS011;68476;42.710;23.388;2023-06-10T15:37:45;5.97;;;4.22;;
79074;SDS011;68476;42.710;23.388;2023-06-10T15:41:10;6.20;;;4.55;;
79074;SDS011;68476;42.710;23.388;2023-06-10T15:44:35;5.18;;;4.30;;
79074;SDS011;68476;42.710;23.388;2023-06-10T15:47:59;6.30;;;4.55;;
79074;SDS011;68476;42.710;23.388;2023-06-10T15:54:46;6.13;;;4.30;;
79074;SDS011;68476;42.710;23.388;2023-06-10T15:58:10;5.95;;;4.70;;
79074;SDS011;68476;42.710;23.388;2023-06-10T16:01:36;6.57;;;4.25;;
79074;SDS011;68476;42.710;23.388;2023-06-10T16:08:24;6.05;;;4.38;;
79074;SDS011;68476;42.710;23.388;2023-06-10T16:11:48;6.00;;;4.63;;
79074;SDS011;68476;42.710;23.388;2023-06-10T16:15:12;4.85;;;4.10;;
79074;SDS011;68476;42.710;23.388;2023-06-10T16:18:36;6.28;;;4.57;;
79074;SDS011;68476;42.710;23.388;2023-06-10T16:25:24;6.85;;;3.97;;
79074;SDS011;68476;42.710;23.388;2023-06-10T16:28:48;4.90;;;3.50;;
79074;SDS011;68476;42.710;23.388;2023-06-10T16:32:12;5.72;;;4.53;;
79074;SDS011;68476;42.710;23.388;2023-06-10T16:39:00;4.53;;;3.83;;
79074;SDS011;68476;42.710;23.388;2023-06-10T16:42:23;4.50;;;3.85;;
79074;SDS011;68476;42.710;23.388;2023-06-10T16:45:49;5.28;;;4.50;;
79074;SDS011;68476;42.710;23.388;2023-06-10T16:52:37;6.30;;;4.60;;
79074;SDS011;68476;42.710;23.388;2023-06-10T16:59:25;6.88;;;4.53;;
79074;SDS011;68476;42.710;23.388;2023-06-10T17:02:49;7.38;;;4.97;;
79074;SDS011;68476;42.710;23.388;2023-06-10T17:06:12;5.78;;;4.47;;
79074;SDS011;68476;42.710;23.388;2023-06-10T17:09:36;5.95;;;4.60;;
79074;SDS011;68476;42.710;23.388;2023-06-10T17:13:01;6.38;;;3.60;;
79074;SDS011;68476;42.710;23.388;2023-06-10T17:19:48;6.20;;;4.65;;
79074;SDS011;68476;42.710;23.388;2023-06-10T17:26:36;4.75;;;4.15;;
79074;SDS011;68476;42.710;23.388;2023-06-10T17:33:24;5.88;;;3.97;;
79074;SDS011;68476;42.710;23.388;2023-06-10T17:36:48;5.95;;;3.97;;
79074;SDS011;68476;42.710;23.388;2023-06-10T17:40:12;7.05;;;3.75;;
79074;SDS011;68476;42.710;23.388;2023-06-10T17:43:36;5.60;;;4.07;;
79074;SDS011;68476;42.710;23.388;2023-06-10T17:47:00;4.65;;;4.05;;
79074;SDS011;68476;42.710;23.388;2023-06-10T17:50:24;5.60;;;4.72;;
79074;SDS011;68476;42.710;23.388;2023-06-10T17:53:48;4.88;;;4.13;;
79074;SDS011;68476;42.710;23.388;2023-06-10T17:57:12;4.05;;;3.60;;
79074;SDS011;68476;42.710;23.388;2023-06-10T18:04:02;5.38;;;3.72;;
79074;SDS011;68476;42.710;23.388;2023-06-10T18:07:26;5.43;;;4.18;;
79074;SDS011;68476;42.710;23.388;2023-06-10T18:14:14;5.97;;;3.80;;
79074;SDS011;68476;42.710;23.388;2023-06-10T18:17:39;5.57;;;3.78;;
79074;SDS011;68476;42.710;23.388;2023-06-10T18:21:03;4.90;;;3.90;;
79074;SDS011;68476;42.710;23.388;2023-06-10T18:24:26;5.55;;;4.38;;
79074;SDS011;68476;42.710;23.388;2023-06-10T18:27:50;4.85;;;4.10;;
79074;SDS011;68476;42.710;23.388;2023-06-10T18:31:14;6.50;;;4.03;;
79074;SDS011;68476;42.710;23.388;2023-06-10T18:34:38;9.32;;;4.55;;
79074;SDS011;68476;42.710;23.388;2023-06-10T18:38:03;5.03;;;4.28;;
79074;SDS011;68476;42.710;23.388;2023-06-10T18:41:27;7.10;;;4.40;;
79074;SDS011;68476;42.710;23.388;2023-06-10T18:44:51;5.45;;;4.30;;
79074;SDS011;68476;42.710;23.388;2023-06-10T18:48:15;6.55;;;5.03;;
79074;SDS011;68476;42.710;23.388;2023-06-10T18:51:39;10.10;;;5.45;;
79074;SDS011;68476;42.710;23.388;2023-06-10T18:55:03;6.20;;;4.35;;
79074;SDS011;68476;42.710;23.388;2023-06-10T18:58:31;9.40;;;5.10;;
79074;SDS011;68476;42.710;23.388;2023-06-10T19:01:55;6.07;;;4.45;;
79074;SDS011;68476;42.710;23.388;2023-06-10T19:08:43;7.13;;;5.20;;
79074;SDS011;68476;42.710;23.388;2023-06-10T19:12:07;5.55;;;4.53;;
79074;SDS011;68476;42.710;23.388;2023-06-10T19:15:31;5.63;;;4.53;;
79074;SDS011;68476;42.710;23.388;2023-06-10T19:22:19;7.82;;;4.68;;
79074;SDS011;68476;42.710;23.388;2023-06-10T19:25:43;5.55;;;4.65;;
79074;SDS011;68476;42.710;23.388;2023-06-10T19:29:06;6.25;;;4.53;;
79074;SDS011;68476;42.710;23.388;2023-06-10T19:32:31;5.15;;;4.63;;
79074;SDS011;68476;42.710;23.388;2023-06-10T19:35:54;7.63;;;5.28;;
79074;SDS011;68476;42.710;23.388;2023-06-10T19:39:18;6.90;;;4.80;;
79074;SDS011;68476;42.710;23.388;2023-06-10T19:42:42;6.82;;;4.97;;
79074;SDS011;68476;42.710;23.388;2023-06-10T19:46:07;5.32;;;4.78;;
79074;SDS011;68476;42.710;23.388;2023-06-10T19:49:31;5.15;;;4.38;;
79074;SDS011;68476;42.710;23.388;2023-06-10T19:52:55;5.10;;;4.40;;
79074;SDS011;68476;42.710;23.388;2023-06-10T19:56:20;5.97;;;4.35;;
79074;SDS011;68476;42.710;23.388;2023-06-10T20:03:08;7.15;;;4.63;;
79074;SDS011;68476;42.710;23.388;2023-06-10T20:06:31;7.93;;;4.68;;
79074;SDS011;68476;42.710;23.388;2023-06-10T20:09:55;5.97;;;4.40;;
79074;SDS011;68476;42.710;23.388;2023-06-10T20:13:19;6.07;;;4.65;;
79074;SDS011;68476;42.710;23.388;2023-06-10T20:16:43;6.00;;;4.70;;
79074;SDS011;68476;42.710;23.388;2023-06-10T20:20:09;6.15;;;4.45;;
79074;SDS011;68476;42.710;23.388;2023-06-10T20:23:34;7.68;;;4.85;;
79074;SDS011;68476;42.710;23.388;2023-06-10T20:26:57;7.80;;;5.68;;
79074;SDS011;68476;42.710;23.388;2023-06-10T20:30:22;7.63;;;6.18;;
79074;SDS011;68476;42.710;23.388;2023-06-10T20:33:46;6.47;;;5.10;;
79074;SDS011;68476;42.710;23.388;2023-06-10T20:37:11;7.88;;;5.40;;
79074;SDS011;68476;42.710;23.388;2023-06-10T20:40:36;6.30;;;4.85;;
79074;SDS011;68476;42.710;23.388;2023-06-10T20:44:00;7.03;;;4.80;;
79074;SDS011;68476;42.710;23.388;2023-06-10T20:47:24;5.82;;;4.53;;
79074;SDS011;68476;42.710;23.388;2023-06-10T20:50:47;6.65;;;5.13;;
79074;SDS011;68476;42.710;23.388;2023-06-10T20:54:11;8.02;;;4.97;;
79074;SDS011;68476;42.710;23.388;2023-06-10T20:57:35;6.97;;;5.43;;
79074;SDS011;68476;42.710;23.388;2023-06-10T21:00:59;6.20;;;5.20;;
79074;SDS011;68476;42.710;23.388;2023-06-10T21:04:25;8.30;;;5.22;;
79074;SDS011;68476;42.710;23.388;2023-06-10T21:07:49;7.93;;;5.00;;
79074;SDS011;68476;42.710;23.388;2023-06-10T21:11:13;7.57;;;5.55;;
79074;SDS011;68476;42.710;23.388;2023-06-10T21:14:38;7.68;;;5.35;;
79074;SDS011;68476;42.710;23.388;2023-06-10T21:18:02;7.22;;;5.28;;
79074;SDS011;68476;42.710;23.388;2023-06-10T21:21:27;6.78;;;4.80;;
79074;SDS011;68476;42.710;23.388;2023-06-10T21:24:51;6.70;;;5.50;;
79074;SDS011;68476;42.710;23.388;2023-06-10T21:28:14;6.82;;;5.35;;
79074;SDS011;68476;42.710;23.388;2023-06-10T21:31:38;7.95;;;5.32;;
79074;SDS011;68476;42.710;23.388;2023-06-10T21:35:02;6.88;;;5.20;;
79074;SDS011;68476;42.710;23.388;2023-06-10T21:38:26;6.45;;;4.25;;
79074;SDS011;68476;42.710;23.388;2023-06-10T21:41:50;6.07;;;4.15;;
79074;SDS011;68476;42.710;23.388;2023-06-10T21:45:14;5.97;;;4.53;;
79074;SDS011;68476;42.710;23.388;2023-06-10T21:48:38;7.35;;;4.65;;
79074;SDS011;68476;42.710;23.388;2023-06-10T21:52:02;6.78;;;4.75;;
79074;SDS011;68476;42.710;23.388;2023-06-10T21:55:26;9.95;;;4.78;;
79074;SDS011;68476;42.710;23.388;2023-06-10T21:58:51;5.32;;;4.55;;
79074;SDS011;68476;42.710;23.388;2023-06-10T22:05:39;5.78;;;4.57;;
79074;SDS011;68476;42.710;23.388;2023-06-10T22:09:03;12.10;;;6.20;;
79074;SDS011;68476;42.710;23.388;2023-06-10T22:12:28;7.07;;;5.15;;
79074;SDS011;68476;42.710;23.388;2023-06-10T22:15:52;7.38;;;4.93;;
79074;SDS011;68476;42.710;23.388;2023-06-10T22:19:15;8.02;;;4.82;;
79074;SDS011;68476;42.710;23.388;2023-06-10T22:22:40;8.48;;;5.35;;
79074;SDS011;68476;42.710;23.388;2023-06-10T22:26:03;10.63;;;5.13;;
79074;SDS011;68476;42.710;23.388;2023-06-10T22:29:28;6.05;;;5.20;;
79074;SDS011;68476;42.710;23.388;2023-06-10T22:32:52;6.63;;;4.72;;
79074;SDS011;68476;42.710;23.388;2023-06-10T22:36:15;6.25;;;5.00;;